CheckWX is a tool to help pilots better visualize weather data.  It is not intended as a substitute for an official pre-flight weather briefing.

09:48:18 UTC

KCNY METAR
Canyonlands Field Airport
Moab, Utah, USA
Current

55 mins ago

KCNY 290853Z AUTO 00000KT 10SM OVC100 M01/M02 A3011 RMK AO2 SLP216 60000 T10111017 56009
Observed
Jan-29 @ 08:53 UTC
Visibility
10 SM
Flight Rules
VFR
Cloud Levels
  • Overcast at 10,000' AGL
Temperature
-1°C / 30°F
Dewpoint
-2°C / 28°F
Humidity
93%
Altimeter
30.11" Hg
Pressure
1019.62 hPa
Previous

2 hours ago

KCNY 290753Z AUTO 00000KT 10SM BKN100 M01/M01 A3012 RMK AO2 SLP220 T10111011
Observed
Jan-29 @ 07:53 UTC
Visibility
10 SM
Flight Rules
VFR
Cloud Levels
  • Broken at 10,000' AGL
Temperature
-1°C / 30°F
Dewpoint
-1°C / 30°F
Humidity
100%
Altimeter
30.12" Hg
Pressure
1020.02 hPa
Previous

3 hours ago

KCNY 290653Z AUTO 13005KT 10SM SCT060 OVC085 M01/M02 A3013 RMK AO2 SNB06E33 SLP226 P0000 T10111017 400111089
Observed
Jan-29 @ 06:53 UTC
Wind
  • 130° at 5 KTS
Visibility
10 SM
Flight Rules
VFR
Cloud Levels
  • Scattered at 6,000' AGL
  • Overcast at 8,500' AGL
Temperature
-1°C / 30°F
Dewpoint
-2°C / 28°F
Humidity
93%
Altimeter
30.13" Hg
Pressure
1020.32 hPa
Current Rain
0.01"